This is the latest recevied weather packets stored in our database for station/object KQ7A. If no packets are shown the sender has not sent any weather packets the latest 10 day(s).
| Time | Temp. | Humidity | Pressure | Rain* | Wind** | Luminosity | Snow |
|---|---|---|---|---|---|---|---|
| 1778163584 | 11.67° C | 69% | 1022.2 hPa | 0 mm | - | 94 W/m² | - |
| 1778163279 | 10° C | 73% | 1022.3 hPa | 0 mm | - | 74 W/m² | - |
| 1778162976 | 9.44° C | 76% | 1022.2 hPa | 0 mm | - | 53 W/m² | - |
| 1778162673 | 9.44° C | 80% | 1022 hPa | 0 mm | - | 46 W/m² | - |
| 1778162371 | 8.89° C | 80% | 1022.2 hPa | 0 mm | - | 43 W/m² | - |
| 1778162067 | 7.78° C | 81% | 1022.2 hPa | 0 mm | - | 34 W/m² | - |
| 1778161765 | 7.22° C | 84% | 1022.3 hPa | 0 mm | - | 33 W/m² | - |
| 1778161461 | 6.67° C | 83% | 1021.9 hPa | 0 mm | - | 28 W/m² | - |
| 1778161156 | 7.22° C | 80% | 1022 hPa | 0 mm | - | 25 W/m² | - |
| 1778160852 | 7.78° C | 78% | 1022.2 hPa | 0 mm | - | 23 W/m² | - |
| 1778160546 | 7.78° C | 78% | 1022.1 hPa | 0 mm | - | 22 W/m² | - |
| 1778160242 | 7.22° C | 78% | 1022 hPa | 0 mm | - | 19 W/m² | - |
| 1778159939 | 7.22° C | 77% | 1022 hPa | 0 mm | - | 15 W/m² | - |
| 1778159636 | 6.11° C | 81% | 1021.8 hPa | 0 mm | - | 12 W/m² | - |
| 1778159333 | 6.67° C | 81% | 1022.3 hPa | 0 mm | - | 10 W/m² | - |
| 1778159029 | 6.67° C | 78% | 1022.1 hPa | 0 mm | - | 6 W/m² | - |
| 1778158728 | 6.67° C | 78% | 1022.1 hPa | 0 mm | - | 3 W/m² | - |
| 1778158425 | 6.67° C | 80% | 1022 hPa | 0 mm | - | 2 W/m² | - |
| 1778158123 | 6.11° C | 82% | 1021.9 hPa | 0 mm | - | 0 W/m² | - |
| 1778157819 | 6.11° C | 82% | 1021.9 hPa | 0 mm | - | 0 W/m² | - |
| 1778157518 | 6.67° C | 78% | 1021.8 hPa | 0 mm | - | 0 W/m² | - |
| 1778157214 | 7.22° C | 77% | 1021.8 hPa | 0 mm | - | 0 W/m² | - |
| 1778156911 | 6.67° C | 80% | 1021.9 hPa | 0 mm | - | 0 W/m² | - |
| 1778156606 | 6.11° C | 83% | 1022.1 hPa | 0 mm | - | 0 W/m² | - |
| 1778156303 | 6.11° C | 81% | 1021.8 hPa | 0 mm | - | 0 W/m² | - |
* Rain latest hour (hover to see other rain measurements)
** Current wind speed in m/s (hover to see current wind gust speed)